Terminal Aerodrome Forecast
Issued by NWS

Home | Current Version | Previous Version | Text Only | Print | Product List | Glossary On
Versions: 1 2 3 4 5 6 7 8 9 10 11 12 13 14 15 16
825
FTAK31 PAJN 062325
TAFAGY
TAF
PAGY 062325Z 0700/0724 20022G35KT 5SM -RA SCT015 OVC050
     FM070300 21012G20KT P6SM VCSH SCT015 OVC050
     FM071400 21009KT P6SM VCSH OVC060
      AMD LTD TO CLD VIS AND WIND=

USA.gov is the U.S. government's official web portal to all federal, state and local government web resources and services.